sensor_id;sensor_type;location;lat;lon;timestamp;pressure;altitude;pressure_sealevel;temperature;humidity
53340;BME280;46212;50.258;19.062;2024-03-29T00:02:03;97081.66;;;7.88;98.26
53340;BME280;46212;50.258;19.062;2024-03-29T00:04:28;97064.13;;;7.71;98.11
53340;BME280;46212;50.258;19.062;2024-03-29T00:06:54;97093.00;;;7.52;99.21
53340;BME280;46212;50.258;19.062;2024-03-29T00:09:19;97111.88;;;7.59;100.00
53340;BME280;46212;50.258;19.062;2024-03-29T00:11:45;97123.72;;;7.27;100.00
53340;BME280;46212;50.258;19.062;2024-03-29T00:14:10;97120.38;;;7.46;100.00
53340;BME280;46212;50.258;19.062;2024-03-29T00:16:36;97149.88;;;7.61;100.00
53340;BME280;46212;50.258;19.062;2024-03-29T00:19:01;97155.97;;;7.94;100.00
53340;BME280;46212;50.258;19.062;2024-03-29T00:21:26;97156.91;;;7.91;100.00
53340;BME280;46212;50.258;19.062;2024-03-29T00:23:52;97155.97;;;7.94;100.00
53340;BME280;46212;50.258;19.062;2024-03-29T00:26:17;97154.56;;;7.98;100.00
53340;BME280;46212;50.258;19.062;2024-03-29T00:28:43;97152.19;;;7.77;100.00
53340;BME280;46212;50.258;19.062;2024-03-29T00:31:08;97170.94;;;7.78;100.00
53340;BME280;46212;50.258;19.062;2024-03-29T00:33:34;97175.06;;;7.74;100.00
53340;BME280;46212;50.258;19.062;2024-03-29T00:36:00;97171.47;;;7.68;100.00
53340;BME280;46212;50.258;19.062;2024-03-29T00:38:25;97170.47;;;7.41;100.00
53340;BME280;46212;50.258;19.062;2024-03-29T00:40:51;97192.03;;;7.58;100.00
53340;BME280;46212;50.258;19.062;2024-03-29T00:43:16;97182.72;;;7.55;100.00
53340;BME280;46212;50.258;19.062;2024-03-29T00:45:42;97192.28;;;7.45;100.00
53340;BME280;46212;50.258;19.062;2024-03-29T00:48:07;97194.38;;;7.50;100.00
53340;BME280;46212;50.258;19.062;2024-03-29T00:50:33;97183.63;;;7.37;100.00
53340;BME280;46212;50.258;19.062;2024-03-29T00:52:59;97197.06;;;7.35;100.00
53340;BME280;46212;50.258;19.062;2024-03-29T00:55:24;97193.38;;;7.38;100.00
53340;BME280;46212;50.258;19.062;2024-03-29T00:57:50;97198.44;;;7.07;100.00
53340;BME280;46212;50.258;19.062;2024-03-29T01:00:15;97212.00;;;7.11;100.00
53340;BME280;46212;50.258;19.062;2024-03-29T01:02:41;97204.13;;;7.27;100.00
53340;BME280;46212;50.258;19.062;2024-03-29T01:05:06;97207.44;;;7.08;100.00
53340;BME280;46212;50.258;19.062;2024-03-29T01:07:32;97225.88;;;7.07;100.00
53340;BME280;46212;50.258;19.062;2024-03-29T01:09:58;97239.97;;;7.00;100.00
53340;BME280;46212;50.258;19.062;2024-03-29T01:12:23;97241.84;;;6.94;100.00
53340;BME280;46212;50.258;19.062;2024-03-29T01:14:48;97249.97;;;6.79;100.00
53340;BME280;46212;50.258;19.062;2024-03-29T01:17:14;97251.41;;;6.99;100.00
53340;BME280;46212;50.258;19.062;2024-03-29T01:19:39;97257.78;;;7.05;100.00
53340;BME280;46212;50.258;19.062;2024-03-29T01:22:05;97266.69;;;6.90;100.00
53340;BME280;46212;50.258;19.062;2024-03-29T01:24:30;97274.78;;;6.85;100.00
53340;BME280;46212;50.258;19.062;2024-03-29T01:26:56;97279.38;;;6.79;100.00
53340;BME280;46212;50.258;19.062;2024-03-29T01:29:21;97285.22;;;7.05;100.00
53340;BME280;46212;50.258;19.062;2024-03-29T01:31:46;97284.66;;;6.91;100.00
53340;BME280;46212;50.258;19.062;2024-03-29T01:34:12;97294.75;;;6.85;100.00
53340;BME280;46212;50.258;19.062;2024-03-29T01:36:37;97296.91;;;6.81;100.00
53340;BME280;46212;50.258;19.062;2024-03-29T01:39:03;97320.13;;;6.71;100.00
53340;BME280;46212;50.258;19.062;2024-03-29T01:41:29;97321.81;;;6.69;100.00
53340;BME280;46212;50.258;19.062;2024-03-29T01:43:54;97298.13;;;6.80;100.00
53340;BME280;46212;50.258;19.062;2024-03-29T01:46:23;97307.78;;;6.67;100.00
53340;BME280;46212;50.258;19.062;2024-03-29T01:48:50;97310.53;;;6.58;100.00
53340;BME280;46212;50.258;19.062;2024-03-29T01:51:17;97340.84;;;6.54;100.00
53340;BME280;46212;50.258;19.062;2024-03-29T01:53:43;97339.00;;;6.78;100.00
53340;BME280;46212;50.258;19.062;2024-03-29T01:56:09;97332.16;;;6.65;100.00
53340;BME280;46212;50.258;19.062;2024-03-29T01:58:34;97349.41;;;6.56;100.00
53340;BME280;46212;50.258;19.062;2024-03-29T02:01:00;97361.13;;;6.57;100.00
53340;BME280;46212;50.258;19.062;2024-03-29T02:03:26;97370.88;;;6.67;100.00
53340;BME280;46212;50.258;19.062;2024-03-29T02:05:53;97380.19;;;6.51;100.00
53340;BME280;46212;50.258;19.062;2024-03-29T02:08:18;97384.28;;;6.37;100.00
53340;BME280;46212;50.258;19.062;2024-03-29T02:10:46;97389.31;;;6.39;100.00
53340;BME280;46212;50.258;19.062;2024-03-29T02:13:12;97401.94;;;6.73;100.00
53340;BME280;46212;50.258;19.062;2024-03-29T02:15:39;97405.63;;;6.52;100.00
53340;BME280;46212;50.258;19.062;2024-03-29T02:18:04;97404.56;;;6.31;100.00
53340;BME280;46212;50.258;19.062;2024-03-29T02:20:31;97410.06;;;6.49;100.00
53340;BME280;46212;50.258;19.062;2024-03-29T02:23:00;97414.16;;;6.17;100.00
53340;BME280;46212;50.258;19.062;2024-03-29T02:25:28;97407.31;;;6.31;100.00
53340;BME280;46212;50.258;19.062;2024-03-29T02:27:54;97419.47;;;6.57;100.00
53340;BME280;46212;50.258;19.062;2024-03-29T02:30:19;97432.75;;;6.40;100.00
53340;BME280;46212;50.258;19.062;2024-03-29T02:32:45;97443.25;;;6.33;100.00
53340;BME280;46212;50.258;19.062;2024-03-29T02:35:11;97445.56;;;6.44;100.00
53340;BME280;46212;50.258;19.062;2024-03-29T02:37:37;97430.16;;;6.37;100.00
53340;BME280;46212;50.258;19.062;2024-03-29T02:40:03;97444.31;;;6.26;100.00
53340;BME280;46212;50.258;19.062;2024-03-29T02:42:29;97456.94;;;6.24;100.00
53340;BME280;46212;50.258;19.062;2024-03-29T02:44:54;97453.56;;;6.11;100.00
53340;BME280;46212;50.258;19.062;2024-03-29T02:47:21;97461.66;;;6.14;100.00
53340;BME280;46212;50.258;19.062;2024-03-29T02:49:46;97461.38;;;6.21;100.00
53340;BME280;46212;50.258;19.062;2024-03-29T02:52:12;97465.53;;;5.86;100.00
53340;BME280;46212;50.258;19.062;2024-03-29T02:54:37;97457.97;;;5.99;100.00
53340;BME280;46212;50.258;19.062;2024-03-29T02:57:03;97469.13;;;6.23;100.00
53340;BME280;46212;50.258;19.062;2024-03-29T02:59:28;97472.63;;;6.14;100.00
53340;BME280;46212;50.258;19.062;2024-03-29T03:01:54;97456.63;;;6.22;100.00
53340;BME280;46212;50.258;19.062;2024-03-29T03:04:19;97482.38;;;6.24;100.00
53340;BME280;46212;50.258;19.062;2024-03-29T03:06:44;97464.34;;;5.96;100.00
53340;BME280;46212;50.258;19.062;2024-03-29T03:09:10;97477.28;;;5.96;100.00
53340;BME280;46212;50.258;19.062;2024-03-29T03:11:53;97497.72;;;6.13;100.00
53340;BME280;46212;50.258;19.062;2024-03-29T03:14:19;97492.09;;;6.07;100.00
53340;BME280;46212;50.258;19.062;2024-03-29T03:16:44;97483.34;;;5.91;100.00
53340;BME280;46212;50.258;19.062;2024-03-29T03:19:10;97494.31;;;6.00;100.00
53340;BME280;46212;50.258;19.062;2024-03-29T03:21:35;97500.25;;;5.89;100.00
53340;BME280;46212;50.258;19.062;2024-03-29T03:24:00;97493.31;;;5.75;100.00
53340;BME280;46212;50.258;19.062;2024-03-29T03:26:26;97488.91;;;5.78;100.00
53340;BME280;46212;50.258;19.062;2024-03-29T03:28:51;97488.59;;;5.76;100.00
53340;BME280;46212;50.258;19.062;2024-03-29T03:31:17;97480.25;;;5.79;100.00
53340;BME280;46212;50.258;19.062;2024-03-29T03:33:43;97491.34;;;5.76;100.00
53340;BME280;46212;50.258;19.062;2024-03-29T03:36:08;97495.41;;;5.71;100.00
53340;BME280;46212;50.258;19.062;2024-03-29T03:38:33;97480.56;;;5.51;100.00
53340;BME280;46212;50.258;19.062;2024-03-29T03:41:02;97472.25;;;5.63;100.00
53340;BME280;46212;50.258;19.062;2024-03-29T03:43:27;97473.72;;;5.55;100.00
53340;BME280;46212;50.258;19.062;2024-03-29T03:45:53;97485.94;;;5.63;100.00
53340;BME280;46212;50.258;19.062;2024-03-29T03:48:18;97484.44;;;5.71;100.00
53340;BME280;46212;50.258;19.062;2024-03-29T03:50:44;97485.03;;;5.57;100.00
53340;BME280;46212;50.258;19.062;2024-03-29T03:53:09;97470.81;;;5.19;100.00
53340;BME280;46212;50.258;19.062;2024-03-29T03:55:36;97467.69;;;5.29;100.00
53340;BME280;46212;50.258;19.062;2024-03-29T03:58:01;97476.22;;;5.31;100.00
53340;BME280;46212;50.258;19.062;2024-03-29T04:00:28;97469.56;;;5.42;100.00
53340;BME280;46212;50.258;19.062;2024-03-29T04:02:53;97458.97;;;5.22;100.00
53340;BME280;46212;50.258;19.062;2024-03-29T04:05:19;97483.41;;;5.38;100.00
53340;BME280;46212;50.258;19.062;2024-03-29T04:07:45;97461.75;;;5.31;100.00
53340;BME280;46212;50.258;19.062;2024-03-29T04:10:11;97463.78;;;5.40;100.00
53340;BME280;46212;50.258;19.062;2024-03-29T04:12:37;97477.88;;;5.29;100.00
53340;BME280;46212;50.258;19.062;2024-03-29T04:15:02;97480.47;;;5.32;100.00
53340;BME280;46212;50.258;19.062;2024-03-29T04:17:31;97475.81;;;5.20;100.00
53340;BME280;46212;50.258;19.062;2024-03-29T04:19:57;97480.88;;;5.00;100.00
53340;BME280;46212;50.258;19.062;2024-03-29T04:22:23;97465.97;;;5.54;100.00
53340;BME280;46212;50.258;19.062;2024-03-29T04:24:49;97478.72;;;5.48;100.00
53340;BME280;46212;50.258;19.062;2024-03-29T04:27:15;97480.19;;;5.40;100.00
53340;BME280;46212;50.258;19.062;2024-03-29T04:29:41;97483.06;;;5.36;100.00
53340;BME280;46212;50.258;19.062;2024-03-29T04:32:08;97494.16;;;5.11;100.00
53340;BME280;46212;50.258;19.062;2024-03-29T04:34:33;97498.91;;;5.10;100.00
53340;BME280;46212;50.258;19.062;2024-03-29T04:36:59;97504.09;;;5.17;100.00
53340;BME280;46212;50.258;19.062;2024-03-29T04:39:24;97508.75;;;5.08;100.00
53340;BME280;46212;50.258;19.062;2024-03-29T04:41:50;97527.94;;;4.95;100.00
53340;BME280;46212;50.258;19.062;2024-03-29T04:44:23;97537.31;;;5.07;100.00
53340;BME280;46212;50.258;19.062;2024-03-29T04:46:50;97537.44;;;5.25;100.00
53340;BME280;46212;50.258;19.062;2024-03-29T04:49:15;97539.72;;;5.26;100.00
53340;BME280;46212;50.258;19.062;2024-03-29T04:51:43;97535.91;;;5.02;100.00
53340;BME280;46212;50.258;19.062;2024-03-29T04:54:08;97550.94;;;5.41;100.00
53340;BME280;46212;50.258;19.062;2024-03-29T04:56:34;97539.41;;;5.24;100.00
53340;BME280;46212;50.258;19.062;2024-03-29T04:59:01;97559.16;;;5.41;100.00
53340;BME280;46212;50.258;19.062;2024-03-29T05:01:27;97552.00;;;5.65;100.00
53340;BME280;46212;50.258;19.062;2024-03-29T05:03:53;97542.28;;;5.64;99.06
53340;BME280;46212;50.258;19.062;2024-03-29T05:06:18;97549.22;;;5.56;99.33
53340;BME280;46212;50.258;19.062;2024-03-29T05:08:43;97546.13;;;5.76;98.77
53340;BME280;46212;50.258;19.062;2024-03-29T05:11:09;97545.53;;;5.81;97.87
53340;BME280;46212;50.258;19.062;2024-03-29T05:13:36;97552.53;;;5.82;97.65
53340;BME280;46212;50.258;19.062;2024-03-29T05:16:01;97555.84;;;5.99;97.02
53340;BME280;46212;50.258;19.062;2024-03-29T05:18:27;97558.31;;;5.84;96.30
53340;BME280;46212;50.258;19.062;2024-03-29T05:20:52;97551.09;;;5.68;96.85
53340;BME280;46212;50.258;19.062;2024-03-29T05:23:17;97545.28;;;5.88;96.00
53340;BME280;46212;50.258;19.062;2024-03-29T05:25:43;97564.69;;;6.03;96.12
53340;BME280;46212;50.258;19.062;2024-03-29T05:28:09;97581.72;;;5.98;95.92
53340;BME280;46212;50.258;19.062;2024-03-29T05:30:35;97593.31;;;6.02;95.83
53340;BME280;46212;50.258;19.062;2024-03-29T05:33:03;97610.56;;;6.11;95.34
53340;BME280;46212;50.258;19.062;2024-03-29T05:35:28;97608.09;;;6.44;93.63
53340;BME280;46212;50.258;19.062;2024-03-29T05:37:54;97608.06;;;6.35;92.71
53340;BME280;46212;50.258;19.062;2024-03-29T05:40:20;97614.88;;;6.61;92.22
53340;BME280;46212;50.258;19.062;2024-03-29T05:42:50;97620.66;;;6.63;91.17
53340;BME280;46212;50.258;19.062;2024-03-29T05:45:29;97619.16;;;6.71;91.20
53340;BME280;46212;50.258;19.062;2024-03-29T05:47:57;97622.09;;;6.95;89.65
53340;BME280;46212;50.258;19.062;2024-03-29T05:50:24;97624.88;;;7.22;88.57
53340;BME280;46212;50.258;19.062;2024-03-29T05:52:53;97616.31;;;7.02;87.76
53340;BME280;46212;50.258;19.062;2024-03-29T05:55:18;97612.66;;;7.14;86.94
53340;BME280;46212;50.258;19.062;2024-03-29T05:57:44;97618.91;;;6.87;87.95
53340;BME280;46212;50.258;19.062;2024-03-29T06:00:13;97619.06;;;7.11;87.04
53340;BME280;46212;50.258;19.062;2024-03-29T06:02:40;97635.41;;;7.33;85.92
53340;BME280;46212;50.258;19.062;2024-03-29T06:05:06;97631.75;;;7.18;86.33
53340;BME280;46212;50.258;19.062;2024-03-29T06:07:32;97641.81;;;7.57;85.46
53340;BME280;46212;50.258;19.062;2024-03-29T06:09:59;97649.31;;;7.57;84.62
53340;BME280;46212;50.258;19.062;2024-03-29T06:12:25;97649.59;;;7.68;84.40
53340;BME280;46212;50.258;19.062;2024-03-29T06:14:51;97627.94;;;7.61;83.93
53340;BME280;46212;50.258;19.062;2024-03-29T06:17:35;97631.66;;;8.09;81.29
53340;BME280;46212;50.258;19.062;2024-03-29T06:20:02;97643.56;;;8.15;80.98
53340;BME280;46212;50.258;19.062;2024-03-29T06:22:29;97637.34;;;8.05;81.54
53340;BME280;46212;50.258;19.062;2024-03-29T06:24:55;97624.50;;;8.02;81.26
53340;BME280;46212;50.258;19.062;2024-03-29T06:27:24;97613.91;;;8.19;80.28
53340;BME280;46212;50.258;19.062;2024-03-29T06:29:50;97619.38;;;8.37;79.27
53340;BME280;46212;50.258;19.062;2024-03-29T06:32:15;97624.25;;;8.42;78.79
53340;BME280;46212;50.258;19.062;2024-03-29T06:34:43;97590.97;;;8.22;78.59
53340;BME280;46212;50.258;19.062;2024-03-29T06:37:09;97613.31;;;8.57;78.60
53340;BME280;46212;50.258;19.062;2024-03-29T06:39:34;97614.69;;;8.61;76.90
53340;BME280;46212;50.258;19.062;2024-03-29T06:42:00;97617.66;;;8.72;77.20
53340;BME280;46212;50.258;19.062;2024-03-29T06:44:25;97602.78;;;8.79;77.06
53340;BME280;46212;50.258;19.062;2024-03-29T06:46:51;97615.00;;;8.87;75.84
53340;BME280;46212;50.258;19.062;2024-03-29T06:49:16;97630.06;;;9.00;75.11
53340;BME280;46212;50.258;19.062;2024-03-29T06:51:42;97636.13;;;9.04;74.58
53340;BME280;46212;50.258;19.062;2024-03-29T06:54:08;97634.09;;;9.14;73.89
53340;BME280;46212;50.258;19.062;2024-03-29T06:56:33;97630.00;;;9.10;73.50
53340;BME280;46212;50.258;19.062;2024-03-29T06:58:59;97631.06;;;9.12;73.08
53340;BME280;46212;50.258;19.062;2024-03-29T07:01:25;97633.56;;;9.25;72.85
53340;BME280;46212;50.258;19.062;2024-03-29T07:03:50;97614.97;;;9.34;72.83
53340;BME280;46212;50.258;19.062;2024-03-29T07:06:16;97633.06;;;9.50;71.76
53340;BME280;46212;50.258;19.062;2024-03-29T07:08:41;97609.09;;;9.41;70.37
53340;BME280;46212;50.258;19.062;2024-03-29T07:11:06;97616.44;;;9.74;70.20
53340;BME280;46212;50.258;19.062;2024-03-29T07:13:32;97591.56;;;9.83;70.30
53340;BME280;46212;50.258;19.062;2024-03-29T07:16:01;97612.56;;;9.80;69.79
53340;BME280;46212;50.258;19.062;2024-03-29T07:18:27;97610.25;;;9.64;70.32
53340;BME280;46212;50.258;19.062;2024-03-29T07:20:52;97619.44;;;9.85;69.49
53340;BME280;46212;50.258;19.062;2024-03-29T07:23:18;97616.09;;;9.81;68.92
53340;BME280;46212;50.258;19.062;2024-03-29T07:25:45;97638.84;;;10.05;69.00
53340;BME280;46212;50.258;19.062;2024-03-29T07:28:13;97631.41;;;10.11;68.66
53340;BME280;46212;50.258;19.062;2024-03-29T07:30:41;97639.53;;;10.29;69.53
53340;BME280;46212;50.258;19.062;2024-03-29T07:33:07;97650.47;;;10.38;69.47
53340;BME280;46212;50.258;19.062;2024-03-29T07:35:34;97661.69;;;10.35;68.59
53340;BME280;46212;50.258;19.062;2024-03-29T07:37:59;97666.91;;;10.62;68.31
53340;BME280;46212;50.258;19.062;2024-03-29T07:40:25;97665.44;;;10.81;66.86
53340;BME280;46212;50.258;19.062;2024-03-29T07:42:50;97663.19;;;11.00;66.22
53340;BME280;46212;50.258;19.062;2024-03-29T07:45:15;97675.91;;;11.12;65.36
53340;BME280;46212;50.258;19.062;2024-03-29T07:47:41;97666.16;;;11.16;64.24
53340;BME280;46212;50.258;19.062;2024-03-29T07:50:06;97679.09;;;11.45;63.38
53340;BME280;46212;50.258;19.062;2024-03-29T07:52:33;97667.22;;;11.59;61.13
53340;BME280;46212;50.258;19.062;2024-03-29T07:54:58;97665.63;;;11.53;62.23
53340;BME280;46212;50.258;19.062;2024-03-29T07:57:25;97653.06;;;11.32;61.66
53340;BME280;46212;50.258;19.062;2024-03-29T07:59:51;97654.16;;;11.40;63.33
53340;BME280;46212;50.258;19.062;2024-03-29T08:02:16;97655.97;;;11.63;62.14
53340;BME280;46212;50.258;19.062;2024-03-29T08:04:42;97678.84;;;11.43;61.66
53340;BME280;46212;50.258;19.062;2024-03-29T08:07:08;97680.63;;;11.66;60.31
53340;BME280;46212;50.258;19.062;2024-03-29T08:09:33;97667.16;;;11.54;60.49
53340;BME280;46212;50.258;19.062;2024-03-29T08:11:59;97666.97;;;11.57;61.36
53340;BME280;46212;50.258;19.062;2024-03-29T08:14:25;97683.47;;;11.52;59.35
53340;BME280;46212;50.258;19.062;2024-03-29T08:16:53;97690.94;;;11.46;59.46
53340;BME280;46212;50.258;19.062;2024-03-29T08:19:19;97662.44;;;11.19;59.56
53340;BME280;46212;50.258;19.062;2024-03-29T08:21:45;97687.06;;;11.38;60.05
53340;BME280;46212;50.258;19.062;2024-03-29T08:24:11;97672.41;;;11.52;59.60
53340;BME280;46212;50.258;19.062;2024-03-29T08:26:37;97663.28;;;11.46;59.34
53340;BME280;46212;50.258;19.062;2024-03-29T08:29:02;97665.50;;;11.42;60.87
53340;BME280;46212;50.258;19.062;2024-03-29T08:31:28;97688.75;;;11.70;59.08
53340;BME280;46212;50.258;19.062;2024-03-29T08:33:53;97686.16;;;11.87;59.60
53340;BME280;46212;50.258;19.062;2024-03-29T08:36:19;97691.78;;;11.92;58.98
53340;BME280;46212;50.258;19.062;2024-03-29T08:38:44;97678.16;;;11.89;59.00
53340;BME280;46212;50.258;19.062;2024-03-29T08:41:11;97678.50;;;12.02;57.76
53340;BME280;46212;50.258;19.062;2024-03-29T08:43:37;97665.56;;;12.13;57.40
53340;BME280;46212;50.258;19.062;2024-03-29T08:46:02;97666.75;;;12.07;56.15
53340;BME280;46212;50.258;19.062;2024-03-29T08:48:28;97667.41;;;11.96;56.86
53340;BME280;46212;50.258;19.062;2024-03-29T08:50:53;97683.91;;;12.11;58.25
53340;BME280;46212;50.258;19.062;2024-03-29T08:53:19;97689.25;;;12.14;55.42
53340;BME280;46212;50.258;19.062;2024-03-29T08:55:46;97689.44;;;12.37;55.19
53340;BME280;46212;50.258;19.062;2024-03-29T08:58:13;97681.66;;;12.41;53.38
53340;BME280;46212;50.258;19.062;2024-03-29T09:00:39;97692.94;;;12.37;53.71
53340;BME280;46212;50.258;19.062;2024-03-29T09:03:04;97686.91;;;12.33;55.12
53340;BME280;46212;50.258;19.062;2024-03-29T09:05:30;97677.66;;;12.42;53.22
53340;BME280;46212;50.258;19.062;2024-03-29T09:07:56;97665.63;;;12.50;53.16
53340;BME280;46212;50.258;19.062;2024-03-29T09:10:23;97673.28;;;12.61;52.92
53340;BME280;46212;50.258;19.062;2024-03-29T09:12:49;97668.38;;;12.45;51.68
53340;BME280;46212;50.258;19.062;2024-03-29T09:15:15;97688.28;;;12.49;53.35
53340;BME280;46212;50.258;19.062;2024-03-29T09:17:44;97678.78;;;12.55;51.91
53340;BME280;46212;50.258;19.062;2024-03-29T09:20:10;97687.78;;;12.50;52.54
53340;BME280;46212;50.258;19.062;2024-03-29T09:22:36;97681.22;;;12.79;51.94
53340;BME280;46212;50.258;19.062;2024-03-29T09:25:04;97703.16;;;12.83;50.80
53340;BME280;46212;50.258;19.062;2024-03-29T09:27:29;97698.66;;;12.54;50.65
53340;BME280;46212;50.258;19.062;2024-03-29T09:29:55;97686.16;;;12.64;50.12
53340;BME280;46212;50.258;19.062;2024-03-29T09:32:22;97688.66;;;12.62;50.15
53340;BME280;46212;50.258;19.062;2024-03-29T09:34:48;97716.88;;;12.66;50.06
53340;BME280;46212;50.258;19.062;2024-03-29T09:37:13;97707.97;;;12.88;49.87
53340;BME280;46212;50.258;19.062;2024-03-29T09:39:38;97694.66;;;12.92;49.53
53340;BME280;46212;50.258;19.062;2024-03-29T09:42:06;97698.41;;;12.89;49.14
53340;BME280;46212;50.258;19.062;2024-03-29T09:44:33;97697.53;;;13.03;48.44
53340;BME280;46212;50.258;19.062;2024-03-29T09:47:03;97684.94;;;13.07;46.84
53340;BME280;46212;50.258;19.062;2024-03-29T09:49:29;97695.66;;;13.25;46.79
53340;BME280;46212;50.258;19.062;2024-03-29T09:51:56;97690.63;;;13.29;46.19
53340;BME280;46212;50.258;19.062;2024-03-29T09:54:22;97702.78;;;13.38;46.30
53340;BME280;46212;50.258;19.062;2024-03-29T09:56:49;97690.22;;;13.48;45.83
53340;BME280;46212;50.258;19.062;2024-03-29T09:59:15;97683.44;;;13.54;45.87
53340;BME280;46212;50.258;19.062;2024-03-29T10:01:41;97694.94;;;13.30;44.31
53340;BME280;46212;50.258;19.062;2024-03-29T10:04:07;97686.44;;;13.45;45.31
53340;BME280;46212;50.258;19.062;2024-03-29T10:06:34;97690.56;;;13.66;44.57
53340;BME280;46212;50.258;19.062;2024-03-29T10:09:00;97681.41;;;13.49;44.25
53340;BME280;46212;50.258;19.062;2024-03-29T10:11:26;97664.78;;;13.55;45.17
53340;BME280;46212;50.258;19.062;2024-03-29T10:13:51;97672.63;;;13.56;44.67
53340;BME280;46212;50.258;19.062;2024-03-29T10:16:20;97676.88;;;13.52;42.82
53340;BME280;46212;50.258;19.062;2024-03-29T10:18:49;97685.56;;;13.81;42.78
53340;BME280;46212;50.258;19.062;2024-03-29T10:21:15;97664.84;;;13.71;44.78
53340;BME280;46212;50.258;19.062;2024-03-29T10:23:41;97662.13;;;13.88;43.20
53340;BME280;46212;50.258;19.062;2024-03-29T10:26:08;97655.34;;;14.06;42.71
53340;BME280;46212;50.258;19.062;2024-03-29T10:28:35;97684.41;;;14.21;42.96
53340;BME280;46212;50.258;19.062;2024-03-29T10:31:03;97664.19;;;14.21;42.23
53340;BME280;46212;50.258;19.062;2024-03-29T10:33:33;97658.91;;;14.23;42.16
53340;BME280;46212;50.258;19.062;2024-03-29T10:35:59;97665.25;;;14.23;43.06
53340;BME280;46212;50.258;19.062;2024-03-29T10:38:26;97650.34;;;14.26;43.24
53340;BME280;46212;50.258;19.062;2024-03-29T10:40:52;97661.22;;;14.35;42.90
53340;BME280;46212;50.258;19.062;2024-03-29T10:43:18;97659.94;;;14.36;42.43
53340;BME280;46212;50.258;19.062;2024-03-29T10:45:44;97670.06;;;14.51;40.65
53340;BME280;46212;50.258;19.062;2024-03-29T10:48:11;97663.25;;;14.41;41.41
53340;BME280;46212;50.258;19.062;2024-03-29T10:50:41;97660.75;;;14.48;41.82
53340;BME280;46212;50.258;19.062;2024-03-29T10:53:08;97632.47;;;14.55;41.92
53340;BME280;46212;50.258;19.062;2024-03-29T10:55:34;97628.38;;;14.84;41.52
53340;BME280;46212;50.258;19.062;2024-03-29T10:58:00;97633.13;;;15.00;42.00
53340;BME280;46212;50.258;19.062;2024-03-29T11:00:29;97633.38;;;15.08;41.40
53340;BME280;46212;50.258;19.062;2024-03-29T11:05:50;97630.00;;;15.37;39.59
53340;BME280;46212;50.258;19.062;2024-03-29T11:08:22;97641.38;;;15.50;41.25
53340;BME280;46212;50.258;19.062;2024-03-29T11:10:50;97618.84;;;15.42;40.23
53340;BME280;46212;50.258;19.062;2024-03-29T11:16:00;97621.84;;;15.56;40.46
53340;BME280;46212;50.258;19.062;2024-03-29T11:18:27;97623.28;;;15.73;38.66
53340;BME280;46212;50.258;19.062;2024-03-29T11:20:53;97604.25;;;15.83;40.45
53340;BME280;46212;50.258;19.062;2024-03-29T11:23:20;97603.16;;;15.97;39.03
53340;BME280;46212;50.258;19.062;2024-03-29T11:25:53;97605.13;;;16.08;39.39
53340;BME280;46212;50.258;19.062;2024-03-29T11:28:30;97624.84;;;16.39;38.00
53340;BME280;46212;50.258;19.062;2024-03-29T11:31:06;97604.34;;;16.42;37.27
53340;BME280;46212;50.258;19.062;2024-03-29T11:33:43;97604.34;;;16.42;36.24
53340;BME280;46212;50.258;19.062;2024-03-29T11:36:23;97579.13;;;16.59;35.37
53340;BME280;46212;50.258;19.062;2024-03-29T11:38:51;97579.91;;;16.54;35.69
53340;BME280;46212;50.258;19.062;2024-03-29T11:41:19;97571.16;;;16.69;36.01
53340;BME280;46212;50.258;19.062;2024-03-29T11:43:48;97553.38;;;16.47;33.91
53340;BME280;46212;50.258;19.062;2024-03-29T11:46:14;97556.25;;;16.66;34.50
53340;BME280;46212;50.258;19.062;2024-03-29T11:48:43;97570.94;;;16.91;33.66
53340;BME280;46212;50.258;19.062;2024-03-29T11:51:13;97581.91;;;17.08;32.81
53340;BME280;46212;50.258;19.062;2024-03-29T11:53:40;97561.81;;;16.90;33.10
53340;BME280;46212;50.258;19.062;2024-03-29T11:56:06;97569.72;;;17.11;32.86
53340;BME280;46212;50.258;19.062;2024-03-29T11:58:33;97551.16;;;17.13;31.95
53340;BME280;46212;50.258;19.062;2024-03-29T12:00:59;97559.41;;;17.24;31.28
53340;BME280;46212;50.258;19.062;2024-03-29T12:03:26;97556.56;;;17.48;31.38
53340;BME280;46212;50.258;19.062;2024-03-29T12:05:53;97563.09;;;17.32;30.69
53340;BME280;46212;50.258;19.062;2024-03-29T12:08:24;97550.69;;;17.52;31.67
53340;BME280;46212;50.258;19.062;2024-03-29T12:10:50;97550.88;;;17.60;30.93
53340;BME280;46212;50.258;19.062;2024-03-29T12:13:16;97539.53;;;17.71;30.32
53340;BME280;46212;50.258;19.062;2024-03-29T12:15:42;97528.50;;;17.78;30.61
53340;BME280;46212;50.258;19.062;2024-03-29T12:18:08;97532.09;;;17.92;30.88
53340;BME280;46212;50.258;19.062;2024-03-29T12:20:38;97528.41;;;18.16;31.07
53340;BME280;46212;50.258;19.062;2024-03-29T12:23:09;97533.91;;;18.21;30.00
53340;BME280;46212;50.258;19.062;2024-03-29T12:25:36;97544.88;;;18.51;30.81
53340;BME280;46212;50.258;19.062;2024-03-29T12:28:02;97522.97;;;18.55;29.85
53340;BME280;46212;50.258;19.062;2024-03-29T12:30:28;97527.59;;;18.79;30.60
53340;BME280;46212;50.258;19.062;2024-03-29T12:33:01;97520.06;;;18.61;30.33
53340;BME280;46212;50.258;19.062;2024-03-29T12:35:28;97546.72;;;18.75;30.39
53340;BME280;46212;50.258;19.062;2024-03-29T12:37:54;97523.06;;;18.63;30.01
53340;BME280;46212;50.258;19.062;2024-03-29T12:40:21;97510.28;;;18.80;30.16
53340;BME280;46212;50.258;19.062;2024-03-29T12:42:50;97523.06;;;19.02;30.45
53340;BME280;46212;50.258;19.062;2024-03-29T12:45:17;97513.78;;;19.33;29.93
53340;BME280;46212;50.258;19.062;2024-03-29T12:47:43;97526.44;;;19.60;30.10
53340;BME280;46212;50.258;19.062;2024-03-29T12:50:12;97520.94;;;19.89;29.14
53340;BME280;46212;50.258;19.062;2024-03-29T12:52:39;97502.16;;;19.97;28.68
53340;BME280;46212;50.258;19.062;2024-03-29T12:55:07;97495.25;;;20.39;28.20